KHHG

Details ICAO KHHG
Name HUNTINGTON MUNI
Region United States
Timezone America/Indiana/Indianapolis (UTC-4.0)
Plans Departing 8
Arriving 8
Stats Elevation 806 ft / 246 m (AMSL)
Location 40.852919° -85.457074°
Runways 1
Magnetic Variation 5.472° W
Sunrise 2018-05-25 10:17:45 UTC / 2018-05-25 06:17:45 Local
Sunset 2018-05-26 01:02:42 UTC / 2018-05-25 21:02:42 Local
Advertisement - Login to hide

Runways

ID Width Length Bearing (true) Bearing (mag) Surface Threshold Offset Overrun Length
09 75 ft / 23 m 4,990 ft / 1,521 m 92.20° 97.67° Asphalt 0 ft / 0 m 0 ft / 0 m
27 75 ft / 23 m 4,990 ft / 1,521 m 272.21° 277.68° Asphalt 0 ft / 0 m 0 ft / 0 m

Map

Weather


0- 5 10 15 20 25 30 35+ Temperature / ° C

Clouds and Precipitation
Forecast for 2018-05-25 12:00 UTC. Updated 4 hours ago

Ground ~20,000 ft ~40,000 ft Winds

METAR

KHHG 251535Z AUTO 26005KT 10SM CLR 26/12 A2998 RMK AO2 T02630116

TAF

Not found

Frequencies

Unicom 122.80 MHz CTAF/UNICOM
Approach 127.20 MHz FORT WAYNE APP/DEP
Warning: Do not use this data for real-world aviation or navigation. No guarantee of current accuracy is given.